Time;durP1;ratioP1;P1;durP2;ratioP2;P2;SDS_P1;SDS_P2;PMS_P1;PMS_P2;Temp;Humidity;BMP_temperature;BMP_pressure;BME280_temperature;BME280_humidity;BME280_pressure;Samples;Min_cycle;Max_cycle;Signal;HPM_P1;HPM_P2
2023/05/04 00:01:48;;;;;;;16.40;14.32;;;;;;;10.67;75.52;94781.53;4215612;28;20054;-63
2023/05/04 00:03:50;;;;;;;19.92;15.40;;;;;;;10.63;75.87;94775.78;4207702;28;20128;-59
2023/05/04 00:05:52;;;;;;;17.65;15.85;;;;;;;10.60;76.11;94778.72;4210152;28;20075;-61
2023/05/04 00:07:53;;;;;;;18.08;16.20;;;;;;;10.72;75.69;94773.22;4209402;28;20075;-60
2023/05/04 00:09:55;;;;;;;18.08;16.05;;;;;;;10.79;75.14;94768.97;4210341;28;20044;-62
2023/05/04 00:11:56;;;;;;;18.40;16.40;;;;;;;10.81;75.12;94777.50;4210344;28;20134;-61
2023/05/04 00:13:58;;;;;;;20.38;16.08;;;;;;;10.89;75.13;94763.59;4218410;28;20078;-61
2023/05/04 00:16:00;;;;;;;19.17;15.88;;;;;;;10.95;74.61;94770.81;4227641;28;20485;-61
2023/05/04 00:18:02;;;;;;;18.13;16.23;;;;;;;11.01;74.45;94770.16;4223577;28;20066;-60
2023/05/04 00:20:04;;;;;;;18.95;15.40;;;;;;;10.91;74.20;94770.31;4226043;27;20069;-60
2023/05/04 00:22:06;;;;;;;17.20;15.45;;;;;;;10.98;74.43;94768.69;4215125;28;20083;-60
2023/05/04 00:24:08;;;;;;;16.48;14.40;;;;;;;11.01;74.57;94776.25;4217683;28;20060;-59
2023/05/04 00:26:09;;;;;;;18.88;16.08;;;;;;;10.97;74.59;94774.94;4215882;28;20048;-60
2023/05/04 00:28:11;;;;;;;19.90;17.05;;;;;;;11.03;74.83;94773.47;4210746;28;20105;-60
2023/05/04 00:30:14;;;;;;;17.90;15.90;;;;;;;11.09;74.66;94772.81;4214802;28;20063;-62
2023/05/04 00:32:15;;;;;;;18.85;16.85;;;;;;;11.14;74.24;94777.59;4212196;28;20047;-61
2023/05/04 00:34:17;;;;;;;17.80;15.63;;;;;;;11.16;74.32;94775.63;4210573;28;20075;-60
2023/05/04 00:36:19;;;;;;;23.60;16.35;;;;;;;11.15;74.82;94777.44;4208261;28;20055;-62
2023/05/04 00:38:20;;;;;;;18.25;15.02;;;;;;;11.17;74.37;94774.66;4211426;28;20101;-61
2023/05/04 00:40:22;;;;;;;19.42;15.65;;;;;;;11.06;75.05;94779.22;4212945;28;20232;-61
2023/05/04 00:42:24;;;;;;;17.73;15.45;;;;;;;11.05;75.31;94772.31;4211565;28;20078;-59
2023/05/04 00:44:26;;;;;;;17.98;15.93;;;;;;;11.05;75.38;94781.97;4210819;28;20418;-62
2023/05/04 00:46:28;;;;;;;21.23;15.98;;;;;;;11.12;75.24;94782.16;4226167;28;20085;-61
2023/05/04 00:48:30;;;;;;;19.52;15.18;;;;;;;11.18;75.07;94779.72;4215055;28;20047;-60
2023/05/04 00:50:31;;;;;;;18.52;16.52;;;;;;;11.23;75.09;94780.06;4225748;28;20099;-61
2023/05/04 00:52:33;;;;;;;18.67;15.90;;;;;;;11.26;74.54;94774.50;4223280;28;20050;-60
2023/05/04 00:54:35;;;;;;;19.83;16.27;;;;;;;11.28;74.46;94777.78;4215574;28;20044;-61
2023/05/04 00:56:41;;;;;;;18.20;16.30;;;;;;;11.27;74.74;94778.78;4225301;28;20062;-61
2023/05/04 00:58:42;;;;;;;17.75;15.88;;;;;;;11.32;74.48;94777.47;4221088;28;20481;-61
2023/05/04 01:00:44;;;;;;;22.05;17.15;;;;;;;11.37;74.31;94770.75;4223731;28;20397;-63
2023/05/04 01:02:46;;;;;;;21.35;17.30;;;;;;;11.43;74.18;94759.59;4224356;28;20108;-61
2023/05/04 01:04:47;;;;;;;20.17;17.92;;;;;;;11.42;74.09;94757.97;4224449;28;20498;-60
2023/05/04 01:07:26;;;;;;;21.27;17.35;;;;;;;11.47;73.82;94755.69;4215734;28;20123;-62
2023/05/04 01:09:36;;;;;;;22.25;16.48;;;;;;;11.53;73.88;94763.88;4200993;28;20060;-61
2023/05/04 01:11:48;;;;;;;22.65;17.88;;;;;;;11.58;73.51;94769.47;4220163;28;20055;-63
2023/05/04 01:13:50;;;;;;;22.15;18.25;;;;;;;11.55;73.36;94768.00;4213511;28;20554;-61
2023/05/04 01:15:51;;;;;;;21.10;18.13;;;;;;;11.48;73.59;94756.50;4212668;28;20494;-61
2023/05/04 01:17:53;;;;;;;20.20;17.23;;;;;;;11.42;73.79;94767.63;4212990;28;20444;-62
2023/05/04 01:19:55;;;;;;;21.10;19.00;;;;;;;11.37;74.22;94764.69;4220243;28;20051;-61
2023/05/04 01:21:57;;;;;;;23.30;18.25;;;;;;;11.42;74.33;94755.34;4214326;28;20048;-62
2023/05/04 01:23:59;;;;;;;20.73;18.38;;;;;;;11.39;74.23;94753.03;4223269;28;20465;-61
2023/05/04 01:26:20;;;;;;;21.17;18.60;;;;;;;11.40;74.17;94753.84;4214699;28;20099;-62
2023/05/04 01:28:44;;;;;;;23.42;18.52;;;;;;;11.36;74.00;94752.56;4218198;28;20043;-62
2023/05/04 01:30:49;;;;;;;21.58;19.08;;;;;;;11.40;73.96;94762.56;4213695;28;20080;-60
2023/05/04 01:32:51;;;;;;;21.95;19.33;;;;;;;11.43;73.87;94750.91;4223230;28;20118;-61
2023/05/04 01:34:53;;;;;;;20.83;18.63;;;;;;;11.48;73.50;94748.63;4222489;28;20055;-62
2023/05/04 01:36:55;;;;;;;21.77;18.77;;;;;;;11.52;73.50;94755.19;4224016;28;20044;-63
2023/05/04 01:38:58;;;;;;;21.70;19.40;;;;;;;11.52;73.28;94757.00;4223633;28;20044;-61
2023/05/04 01:41:00;;;;;;;20.48;17.90;;;;;;;11.47;73.49;94750.44;4216577;28;20063;-61
2023/05/04 01:43:01;;;;;;;21.98;18.80;;;;;;;11.52;73.56;94743.88;4221858;28;20130;-61
2023/05/04 01:45:03;;;;;;;21.73;18.40;;;;;;;11.56;73.41;94748.63;4219067;28;20553;-61
2023/05/04 01:47:05;;;;;;;20.05;17.83;;;;;;;11.58;73.19;94740.59;4208373;28;20051;-60
2023/05/04 01:49:06;;;;;;;22.10;18.17;;;;;;;11.56;72.88;94739.94;4220794;28;20048;-61
2023/05/04 01:51:08;;;;;;;20.83;17.83;;;;;;;11.56;72.83;94738.13;4218479;28;20423;-62
2023/05/04 01:53:10;;;;;;;20.45;17.95;;;;;;;11.48;73.09;94736.31;4216480;28;20062;-61
2023/05/04 01:55:11;;;;;;;20.65;18.52;;;;;;;11.46;73.15;94733.06;4214200;28;20048;-62
2023/05/04 01:57:13;;;;;;;21.00;18.65;;;;;;;11.42;73.10;94730.91;4225611;28;20406;-59
2023/05/04 01:59:15;;;;;;;22.52;18.25;;;;;;;11.39;73.64;94737.31;4212898;28;20135;-62
2023/05/04 02:01:16;;;;;;;24.88;18.63;;;;;;;11.38;73.38;94738.31;4223513;28;20548;-60
2023/05/04 02:03:18;;;;;;;24.88;19.13;;;;;;;11.46;73.27;94743.56;4224860;28;20080;-62
2023/05/04 02:05:19;;;;;;;20.65;18.55;;;;;;;11.47;72.92;94739.13;4224768;28;20059;-62
2023/05/04 02:07:21;;;;;;;20.92;18.42;;;;;;;11.53;72.58;94748.97;4226393;28;20039;-60
2023/05/04 02:09:23;;;;;;;20.45;17.85;;;;;;;11.59;72.07;94736.97;4227612;28;20052;-62
2023/05/04 02:11:24;;;;;;;22.27;17.58;;;;;;;11.62;71.93;94736.66;4227199;28;20047;-62
2023/05/04 02:13:26;;;;;;;18.95;16.95;;;;;;;11.64;71.90;94739.94;4215826;28;20105;-61
2023/05/04 02:15:28;;;;;;;20.60;16.50;;;;;;;11.48;73.06;94740.75;4225130;28;20043;-62
2023/05/04 02:17:30;;;;;;;19.05;17.00;;;;;;;11.43;72.83;94736.00;4226387;28;20044;-61
2023/05/04 02:19:32;;;;;;;17.65;15.75;;;;;;;11.35;73.21;94735.97;4226207;28;20112;-62
2023/05/04 02:21:34;;;;;;;22.67;16.83;;;;;;;11.34;73.18;94733.53;4226977;28;20086;-61
2023/05/04 02:23:35;;;;;;;18.85;16.35;;;;;;;11.33;73.43;94743.19;4226110;28;20523;-61
2023/05/04 02:25:40;;;;;;;18.27;15.60;;;;;;;11.36;73.52;94736.81;4222062;28;20047;-60
2023/05/04 02:27:42;;;;;;;18.08;15.23;;;;;;;11.38;73.30;94735.69;4222636;27;20420;-61
2023/05/04 02:29:44;;;;;;;20.23;15.85;;;;;;;11.41;72.79;94745.81;4219666;28;20066;-61
2023/05/04 02:31:45;;;;;;;16.88;15.13;;;;;;;11.38;72.78;94740.06;4218178;28;20396;-61
2023/05/04 02:33:49;;;;;;;18.52;14.07;;;;;;;11.44;72.86;94740.28;4226438;28;20052;-60
2023/05/04 02:35:51;;;;;;;;;;;;;;;11.52;72.54;94738.63;4214637;28;20149;-61
2023/05/04 02:37:52;;;;;;;17.52;14.38;;;;;;;11.34;72.84;94744.84;4226839;28;19920;-61
2023/05/04 02:39:54;;;;;;;17.45;14.32;;;;;;;11.25;72.95;94737.97;4227963;28;20575;-60
2023/05/04 02:41:55;;;;;;;18.88;14.43;;;;;;;11.24;73.34;94738.94;4226182;28;20465;-62
2023/05/04 02:43:57;;;;;;;18.35;14.32;;;;;;;11.23;73.15;94734.69;4220907;28;20048;-62
2023/05/04 02:45:59;;;;;;;18.13;13.40;;;;;;;11.25;73.15;94745.84;4221510;28;20066;-62
2023/05/04 02:48:01;;;;;;;16.92;13.82;;;;;;;11.27;73.11;94739.44;4212638;28;20048;-61
2023/05/04 02:50:03;;;;;;;16.00;13.20;;;;;;;11.15;72.66;94745.16;4203480;28;20147;-60
2023/05/04 02:52:05;;;;;;;16.50;13.77;;;;;;;11.14;72.77;94744.34;4224164;28;20051;-59
2023/05/04 02:54:07;;;;;;;17.40;13.02;;;;;;;11.20;72.48;94748.09;4225987;28;20551;-59
2023/05/04 02:56:08;;;;;;;14.02;12.40;;;;;;;11.16;72.60;94741.53;4227167;28;20070;-61
2023/05/04 02:58:10;;;;;;;14.27;12.02;;;;;;;11.13;72.21;94744.50;4226918;28;20046;-62
2023/05/04 03:00:12;;;;;;;15.65;11.23;;;;;;;11.18;72.38;94742.19;4213780;28;20048;-61
2023/05/04 03:02:14;;;;;;;14.15;11.25;;;;;;;11.23;71.72;94740.75;4223712;28;20106;-62
2023/05/04 03:04:15;;;;;;;16.85;10.27;;;;;;;11.28;71.88;94748.13;4220085;28;20047;-61
2023/05/04 03:06:17;;;;;;;12.18;9.55;;;;;;;11.28;71.11;94750.75;4212917;28;20489;-61
2023/05/04 03:08:19;;;;;;;12.85;10.13;;;;;;;11.15;71.30;94753.03;4212182;28;20147;-61
2023/05/04 03:10:20;;;;;;;15.32;10.05;;;;;;;11.12;71.43;94748.91;4212893;28;20161;-62
2023/05/04 03:12:23;;;;;;;12.90;10.90;;;;;;;11.04;71.78;94754.97;4213075;28;20508;-61
2023/05/04 03:14:25;;;;;;;14.38;10.43;;;;;;;11.09;72.18;94748.41;4212905;28;20091;-60
2023/05/04 03:16:26;;;;;;;11.15;9.40;;;;;;;11.02;71.56;94754.28;4212859;28;20056;-62
2023/05/04 03:18:28;;;;;;;13.30;10.23;;;;;;;10.94;72.67;94756.88;4212297;28;20370;-60
2023/05/04 03:20:47;;;;;;;14.02;10.38;;;;;;;10.94;72.58;94759.50;4212918;28;20159;-61
2023/05/04 03:22:49;;;;;;;14.25;10.23;;;;;;;10.98;73.07;94765.25;4213296;28;20461;-62
2023/05/04 03:24:51;;;;;;;12.02;9.73;;;;;;;10.84;73.03;94757.03;4219422;28;20070;-62
2023/05/04 03:26:53;;;;;;;11.60;9.88;;;;;;;10.94;73.24;94766.56;4227174;28;20047;-62
2023/05/04 03:28:55;;;;;;;12.75;9.90;;;;;;;10.93;73.01;94763.13;4213242;28;20048;-61
2023/05/04 03:30:56;;;;;;;11.18;9.43;;;;;;;10.89;73.02;94764.41;4221951;28;20068;-62
2023/05/04 03:32:58;;;;;;;11.10;9.88;;;;;;;10.74;73.70;94764.22;4219625;28;20170;-61
2023/05/04 03:35:00;;;;;;;14.18;10.05;;;;;;;10.70;74.45;94767.31;4224940;28;20054;-59
2023/05/04 03:37:04;;;;;;;12.63;8.90;;;;;;;10.59;74.61;94768.41;4224367;28;20047;-60
2023/05/04 03:39:06;;;;;;;12.15;8.75;;;;;;;10.56;75.11;94772.16;4225576;28;20051;-61
2023/05/04 03:41:09;;;;;;;9.70;8.60;;;;;;;10.55;75.45;94773.13;4225270;28;20546;-60
2023/05/04 03:43:11;;;;;;;9.93;8.55;;;;;;;10.59;75.24;94774.47;4211821;28;20040;-62
2023/05/04 03:45:12;;;;;;;11.65;8.63;;;;;;;10.61;74.81;94777.75;4202006;28;20078;-61
2023/05/04 03:47:14;;;;;;;9.43;8.13;;;;;;;10.59;75.24;94777.06;4224812;28;20105;-59
2023/05/04 03:49:16;;;;;;;9.75;8.40;;;;;;;10.62;75.74;94778.56;4225506;28;20409;-61
2023/05/04 03:51:17;;;;;;;10.60;8.43;;;;;;;10.54;75.24;94786.38;4221689;28;20048;-62
2023/05/04 03:53:19;;;;;;;12.18;8.77;;;;;;;10.46;75.92;94787.19;4226860;28;20051;-60
2023/05/04 03:55:21;;;;;;;14.20;9.57;;;;;;;10.25;76.86;94788.31;4226130;28;20106;-60
2023/05/04 03:57:23;;;;;;;10.88;9.77;;;;;;;10.35;77.26;94785.63;4223033;28;20452;-61
2023/05/04 03:59:24;;;;;;;10.63;8.95;;;;;;;10.45;76.75;94788.13;4217818;28;20421;-60
2023/05/04 04:01:26;;;;;;;11.27;9.23;;;;;;;10.36;77.09;94784.66;4226540;28;20056;-60
2023/05/04 04:03:28;;;;;;;11.70;10.27;;;;;;;10.35;76.87;94787.44;4222829;28;20074;-62
2023/05/04 04:05:30;;;;;;;12.70;10.73;;;;;;;10.38;77.62;94790.56;4215312;28;20044;-62
2023/05/04 04:07:32;;;;;;;11.75;10.40;;;;;;;10.42;77.41;94793.69;4216674;28;20512;-61
2023/05/04 04:09:33;;;;;;;13.20;10.10;;;;;;;10.42;77.68;94793.69;4222699;28;20051;-61
2023/05/04 04:11:35;;;;;;;12.27;9.48;;;;;;;10.37;77.52;94801.22;4210584;28;20040;-61
2023/05/04 04:13:36;;;;;;;11.13;10.07;;;;;;;10.23;78.38;94803.38;4215794;28;20122;-60
2023/05/04 04:15:39;;;;;;;11.40;10.02;;;;;;;10.29;78.48;94799.34;4217030;28;20130;-60
2023/05/04 04:17:42;;;;;;;;;;;;;;;10.39;78.37;94800.06;4210083;28;20045;-60
2023/05/04 04:19:44;;;;;;;12.73;9.98;;;;;;;10.37;77.89;94798.59;4223073;28;19930;-62
2023/05/04 04:21:45;;;;;;;11.60;9.88;;;;;;;10.44;77.94;94805.66;4210015;28;20064;-60
2023/05/04 04:23:47;;;;;;;12.10;10.38;;;;;;;10.43;77.90;94795.31;4210759;28;20473;-62
2023/05/04 04:25:48;;;;;;;11.00;9.52;;;;;;;10.29;78.56;94801.13;4210507;28;20074;-61
2023/05/04 04:27:50;;;;;;;11.38;10.25;;;;;;;10.37;78.79;94809.06;4212462;28;20533;-60
2023/05/04 04:29:52;;;;;;;11.82;10.13;;;;;;;10.29;78.43;94801.97;4212659;28;20087;-60
2023/05/04 04:31:53;;;;;;;14.35;10.40;;;;;;;10.28;79.12;94807.31;4210780;28;20102;-63
2023/05/04 04:33:55;;;;;;;13.45;10.57;;;;;;;10.35;78.98;94803.97;4213730;28;20047;-62
2023/05/04 04:35:57;;;;;;;13.57;10.27;;;;;;;10.45;78.42;94811.69;4210056;28;20044;-60
2023/05/04 04:37:58;;;;;;;12.98;10.02;;;;;;;10.54;77.90;94816.03;4211112;28;20044;-61
2023/05/04 04:40:06;;;;;;;11.40;9.60;;;;;;;10.62;77.89;94818.66;4212106;28;20105;-61
2023/05/04 04:42:07;;;;;;;11.70;9.55;;;;;;;10.48;77.66;94819.28;4211334;28;20069;-60
2023/05/04 04:44:10;;;;;;;12.48;10.18;;;;;;;10.44;78.17;94818.75;4211726;28;20089;-59
2023/05/04 04:46:12;;;;;;;13.85;10.52;;;;;;;10.30;78.53;94818.50;4211306;28;20114;-61
2023/05/04 04:48:14;;;;;;;14.98;10.07;;;;;;;10.29;78.97;94822.91;4208935;28;20036;-60
2023/05/04 04:50:16;;;;;;;11.23;9.75;;;;;;;10.32;79.55;94824.41;4210504;28;20742;-59
2023/05/04 04:52:17;;;;;;;11.98;9.38;;;;;;;10.22;79.54;94827.09;4215584;28;20199;-59
2023/05/04 04:54:19;;;;;;;13.40;9.68;;;;;;;10.12;79.62;94823.75;4219675;28;20049;-61
2023/05/04 04:56:21;;;;;;;12.85;10.52;;;;;;;10.09;80.60;94830.13;4226030;28;20047;-61
2023/05/04 04:58:22;;;;;;;14.00;10.63;;;;;;;10.03;80.37;94828.13;4226836;28;20477;-63
2023/05/04 05:00:25;;;;;;;13.93;10.02;;;;;;;10.09;80.82;94827.50;4224062;28;20263;-63
2023/05/04 05:02:27;;;;;;;12.60;9.65;;;;;;;10.12;80.52;94835.03;4219910;28;20120;-62
2023/05/04 05:04:29;;;;;;;13.68;10.40;;;;;;;10.16;80.50;94832.94;4211332;28;20048;-62
2023/05/04 05:06:30;;;;;;;14.25;10.27;;;;;;;10.17;80.54;94842.44;4208993;28;20051;-61
2023/05/04 05:08:32;;;;;;;14.75;10.52;;;;;;;10.24;80.30;94841.69;4211569;28;20040;-61
2023/05/04 05:10:34;;;;;;;14.77;10.60;;;;;;;10.28;80.62;94842.16;4210667;28;20528;-61
2023/05/04 05:12:36;;;;;;;14.05;10.48;;;;;;;10.32;80.48;94846.16;4210317;28;20048;-60
2023/05/04 05:14:38;;;;;;;13.60;10.02;;;;;;;10.35;80.60;94839.81;4209873;28;20044;-61
2023/05/04 05:16:40;;;;;;;16.90;10.50;;;;;;;10.43;80.85;94843.31;4212109;28;20078;-61
2023/05/04 05:18:41;;;;;;;13.68;10.98;;;;;;;10.36;80.43;94841.44;4214054;28;20036;-62
2023/05/04 05:20:43;;;;;;;14.15;10.98;;;;;;;10.31;80.64;94844.53;4213679;28;20052;-61
2023/05/04 05:22:45;;;;;;;16.23;11.82;;;;;;;10.18;80.93;94844.91;4212071;28;20048;-61
2023/05/04 05:24:46;;;;;;;14.48;10.75;;;;;;;10.12;81.42;94848.13;4220561;28;20044;-63
2023/05/04 05:26:48;;;;;;;15.02;11.45;;;;;;;10.05;81.95;94853.16;4228551;28;20063;-63
2023/05/04 05:28:50;;;;;;;13.55;11.27;;;;;;;10.03;82.69;94851.66;4217528;28;20048;-61
2023/05/04 05:30:51;;;;;;;14.65;11.98;;;;;;;10.07;82.51;94855.63;4220974;28;20076;-60
2023/05/04 05:32:53;;;;;;;16.15;11.25;;;;;;;10.21;82.38;94852.44;4214155;28;20404;-60
2023/05/04 05:34:55;;;;;;;14.68;11.35;;;;;;;10.35;81.98;94852.91;4229239;28;20387;-60
2023/05/04 05:36:57;;;;;;;15.88;10.70;;;;;;;10.51;81.79;94858.22;4227248;28;20035;-60
2023/05/04 05:38:58;;;;;;;13.23;11.00;;;;;;;10.63;80.94;94864.06;4228303;28;20047;-62
2023/05/04 05:41:00;;;;;;;14.70;10.98;;;;;;;10.74;80.41;94863.78;4228713;28;20052;-59
2023/05/04 05:43:04;;;;;;;17.83;10.98;;;;;;;10.94;80.39;94864.34;4229554;28;20516;-62
2023/05/04 05:45:06;;;;;;;13.60;10.48;;;;;;;11.06;79.83;94868.34;4227880;28;20044;-61
2023/05/04 05:47:08;;;;;;;15.02;10.95;;;;;;;11.14;79.03;94869.34;4222338;28;20127;-60
2023/05/04 05:49:10;;;;;;;17.38;10.73;;;;;;;11.25;78.57;94872.53;4228969;28;20086;-59
2023/05/04 05:51:11;;;;;;;16.10;10.52;;;;;;;11.38;78.21;94874.69;4223566;28;20596;-60
2023/05/04 05:53:13;;;;;;;12.38;9.60;;;;;;;11.48;77.30;94871.91;4227381;28;20540;-61
2023/05/04 05:55:15;;;;;;;14.02;10.27;;;;;;;11.45;76.96;94878.31;4225174;28;20051;-61
2023/05/04 05:57:16;;;;;;;13.13;10.32;;;;;;;11.52;77.10;94882.91;4212334;28;20146;-61
2023/05/04 05:59:18;;;;;;;12.43;9.60;;;;;;;11.55;76.69;94880.81;4222813;28;20044;-60
2023/05/04 06:01:19;;;;;;;14.10;10.55;;;;;;;11.62;76.93;94881.78;4220134;28;20075;-63
2023/05/04 06:03:21;;;;;;;13.30;10.13;;;;;;;11.65;76.61;94883.28;4212624;28;20052;-62
2023/05/04 06:05:23;;;;;;;15.82;9.77;;;;;;;11.75;76.61;94885.75;4227190;28;20135;-60
2023/05/04 06:07:25;;;;;;;15.98;9.43;;;;;;;11.86;76.27;94886.25;4228368;28;20059;-61
2023/05/04 06:09:26;;;;;;;17.35;9.73;;;;;;;11.95;75.68;94883.69;4227847;28;20075;-61
2023/05/04 06:11:28;;;;;;;10.93;8.80;;;;;;;12.13;75.68;94883.50;4225189;28;20055;-60
2023/05/04 06:13:30;;;;;;;11.35;8.70;;;;;;;12.20;75.19;94887.97;4227338;28;20051;-62
2023/05/04 06:15:31;;;;;;;16.80;8.70;;;;;;;12.34;74.90;94885.66;4227856;27;20058;-62
2023/05/04 06:17:33;;;;;;;13.43;8.30;;;;;;;12.45;74.04;94887.94;4228753;28;20492;-61
2023/05/04 06:19:38;;;;;;;12.55;8.52;;;;;;;12.56;74.05;94887.63;4213142;28;20479;-61
2023/05/04 06:21:39;;;;;;;10.00;8.02;;;;;;;12.57;72.33;94891.88;4226954;28;20106;-62
2023/05/04 06:23:41;;;;;;;11.48;8.10;;;;;;;12.63;72.61;94893.84;4226309;28;20040;-60
2023/05/04 06:25:43;;;;;;;10.98;8.05;;;;;;;12.72;72.07;94889.38;4215127;28;20117;-62
2023/05/04 06:27:44;;;;;;;10.05;7.53;;;;;;;12.82;71.93;94882.16;4213190;28;20048;-60
2023/05/04 06:29:46;;;;;;;12.95;7.57;;;;;;;12.82;71.56;94881.31;4213399;28;20117;-59
2023/05/04 06:31:48;;;;;;;12.90;8.38;;;;;;;12.83;71.75;94885.59;4213848;28;20464;-61
2023/05/04 06:33:49;;;;;;;10.13;6.53;;;;;;;12.86;70.98;94888.72;4212226;28;20048;-61
2023/05/04 06:35:52;;;;;;;9.27;7.05;;;;;;;12.82;69.83;94881.31;4213033;28;20040;-62
2023/05/04 06:37:53;;;;;;;8.10;6.45;;;;;;;12.72;70.17;94889.38;4212403;28;20055;-63
2023/05/04 06:39:55;;;;;;;11.48;7.40;;;;;;;12.60;71.05;94891.53;4222935;28;20126;-61
2023/05/04 06:41:57;;;;;;;12.98;6.15;;;;;;;12.55;70.68;94890.41;4227790;28;20077;-63
2023/05/04 06:43:59;;;;;;;10.05;6.20;;;;;;;12.46;70.90;94881.72;4228118;28;20500;-63
2023/05/04 06:46:04;;;;;;;7.88;6.03;;;;;;;12.38;71.18;94889.59;4226810;28;20056;-63
2023/05/04 06:48:07;;;;;;;8.75;6.13;;;;;;;12.48;71.33;94887.63;4224595;28;20055;-63
2023/05/04 06:50:10;;;;;;;8.55;6.53;;;;;;;12.57;70.85;94894.50;4227847;28;20040;-69
2023/05/04 06:52:13;;;;;;;11.37;6.60;;;;;;;12.31;70.17;94888.63;4225261;28;20058;-63
2023/05/04 06:54:14;;;;;;;6.93;5.05;;;;;;;12.12;70.49;94893.22;4219335;28;20333;-64
2023/05/04 06:56:16;;;;;;;8.40;5.93;;;;;;;12.16;71.44;94891.91;4220658;28;20052;-63
2023/05/04 06:58:18;;;;;;;8.27;6.32;;;;;;;12.28;71.72;94897.63;4211018;28;20140;-62
2023/05/04 07:00:21;;;;;;;9.25;5.60;;;;;;;12.35;70.85;94895.19;4212613;28;20061;-63
2023/05/04 07:02:23;;;;;;;8.18;5.32;;;;;;;12.36;70.25;94891.56;4227024;28;20043;-63
2023/05/04 07:04:24;;;;;;;8.68;5.35;;;;;;;12.29;69.86;94894.03;4218580;28;20080;-62
2023/05/04 07:06:27;;;;;;;8.45;5.70;;;;;;;12.19;69.53;94896.81;4222489;28;20085;-63
2023/05/04 07:08:29;;;;;;;9.07;5.85;;;;;;;12.05;69.99;94887.78;4223877;28;20439;-62
2023/05/04 07:10:31;;;;;;;7.35;5.72;;;;;;;12.08;70.42;94892.69;4218177;28;20062;-63
2023/05/04 07:12:33;;;;;;;8.80;5.47;;;;;;;12.06;70.09;94892.03;4226525;28;20131;-63
2023/05/04 07:14:34;;;;;;;11.18;6.07;;;;;;;11.98;70.01;94896.47;4224771;28;20051;-64
2023/05/04 07:16:36;;;;;;;9.10;6.30;;;;;;;11.97;70.70;94887.78;4227378;28;20604;-62
2023/05/04 07:18:39;;;;;;;7.90;6.40;;;;;;;12.02;70.66;94889.91;4225899;28;20464;-63
2023/05/04 07:20:41;;;;;;;7.65;6.20;;;;;;;11.97;70.91;94895.66;4226926;28;20124;-61
2023/05/04 07:22:43;;;;;;;8.05;6.05;;;;;;;11.95;70.47;94896.81;4224098;28;20086;-63
2023/05/04 07:24:45;;;;;;;8.10;6.32;;;;;;;11.92;70.82;94899.78;4221675;28;20043;-62
2023/05/04 07:26:47;;;;;;;10.40;6.35;;;;;;;11.90;70.27;94904.38;4222370;28;20112;-61
2023/05/04 07:28:48;;;;;;;7.97;6.20;;;;;;;11.92;70.27;94910.28;4213088;28;20052;-63
2023/05/04 07:30:50;;;;;;;8.32;6.32;;;;;;;11.93;69.95;94896.16;4214302;28;21297;-64
2023/05/04 07:32:52;;;;;;;8.18;6.40;;;;;;;11.95;70.20;94902.88;4220161;28;20123;-62
2023/05/04 07:34:53;;;;;;;8.32;6.93;;;;;;;11.96;69.97;94903.69;4213819;28;20070;-61
2023/05/04 07:36:55;;;;;;;9.75;7.53;;;;;;;11.93;70.59;94904.84;4211539;28;20117;-62
2023/05/04 07:38:57;;;;;;;8.63;6.65;;;;;;;11.83;70.09;94904.97;4207386;28;20047;-61
2023/05/04 07:40:58;;;;;;;9.23;6.55;;;;;;;11.83;70.79;94899.72;4210866;28;20146;-60
2023/05/04 07:43:00;;;;;;;8.95;6.68;;;;;;;11.75;70.75;94907.56;4227212;28;20052;-61
2023/05/04 07:45:02;;;;;;;9.15;6.97;;;;;;;11.72;71.12;94907.06;4223942;28;20642;-64
2023/05/04 07:47:04;;;;;;;7.70;6.68;;;;;;;11.75;71.02;94904.13;4215157;28;20051;-62
2023/05/04 07:49:06;;;;;;;9.23;7.03;;;;;;;11.75;71.17;94904.94;4225266;28;20081;-64
2023/05/04 07:51:12;;;;;;;10.45;6.78;;;;;;;11.75;71.24;94901.50;4224249;27;20052;-62
2023/05/04 07:53:14;;;;;;;9.60;7.22;;;;;;;11.76;70.98;94909.19;4220103;28;20066;-63
2023/05/04 07:55:15;;;;;;;7.95;6.72;;;;;;;11.86;71.20;94912.50;4227288;28;20047;-62
2023/05/04 07:57:17;;;;;;;10.07;7.72;;;;;;;11.99;71.18;94908.63;4222910;28;20059;-63
2023/05/04 07:59:19;;;;;;;10.88;7.47;;;;;;;12.07;70.92;94919.97;4210950;28;20461;-61
2023/05/04 08:01:20;;;;;;;9.38;7.20;;;;;;;12.06;70.76;94917.50;4219703;28;20056;-63
2023/05/04 08:03:22;;;;;;;10.90;7.50;;;;;;;12.07;70.85;94925.22;4225294;28;20123;-63
2023/05/04 08:05:24;;;;;;;9.18;7.22;;;;;;;12.11;70.63;94919.63;4213271;28;20466;-63
2023/05/04 08:07:25;;;;;;;8.85;7.53;;;;;;;12.06;71.05;94928.00;4211428;28;20070;-63
2023/05/04 08:09:27;;;;;;;11.05;7.47;;;;;;;12.09;70.64;94931.13;4212211;28;20044;-62
2023/05/04 08:11:29;;;;;;;12.00;7.63;;;;;;;12.14;71.11;94928.00;4212984;28;20071;-62
2023/05/04 08:13:30;;;;;;;8.73;7.28;;;;;;;12.06;71.19;94934.06;4211783;28;20056;-65
2023/05/04 08:15:32;;;;;;;11.57;8.18;;;;;;;12.08;71.23;94931.28;4212449;28;20051;-63
2023/05/04 08:17:34;;;;;;;9.18;7.40;;;;;;;12.10;71.08;94931.94;4209309;28;20048;-64
2023/05/04 08:19:35;;;;;;;11.82;8.65;;;;;;;12.18;70.88;94931.13;4211651;28;20475;-63
2023/05/04 08:21:39;;;;;;;8.57;7.45;;;;;;;12.18;70.95;94934.56;4224955;28;20043;-61
2023/05/04 08:23:41;;;;;;;9.68;6.85;;;;;;;12.21;71.09;94928.16;4219601;28;20050;-63
2023/05/04 08:25:42;;;;;;;10.98;7.68;;;;;;;12.28;70.99;94926.53;4216417;28;20048;-62
2023/05/04 08:27:44;;;;;;;9.93;7.20;;;;;;;12.33;70.46;94929.50;4216506;28;20051;-63
2023/05/04 08:29:46;;;;;;;10.35;8.45;;;;;;;12.40;70.94;94929.66;4211552;28;20396;-62
2023/05/04 08:31:48;;;;;;;11.32;8.13;;;;;;;12.47;70.41;94931.44;4218676;28;20044;-63
2023/05/04 08:33:50;;;;;;;10.52;8.45;;;;;;;12.54;69.89;94926.38;4217072;28;20055;-64
2023/05/04 08:35:51;;;;;;;10.40;8.50;;;;;;;12.59;70.19;94924.06;4224747;28;20071;-64
2023/05/04 08:37:53;;;;;;;9.63;7.60;;;;;;;12.69;69.99;94929.13;4220551;28;20052;-59
2023/05/04 08:39:55;;;;;;;10.00;7.95;;;;;;;12.79;70.06;94929.78;4210768;28;20510;-62
2023/05/04 08:41:57;;;;;;;9.50;7.50;;;;;;;12.86;69.63;94916.78;4217599;28;20106;-60
2023/05/04 08:43:59;;;;;;;32.72;24.58;;;;;;;12.93;69.77;94928.28;4216901;28;20541;-61
2023/05/04 08:46:00;;;;;;;71.72;47.03;;;;;;;12.98;69.25;94922.53;4215042;28;20387;-62
2023/05/04 08:48:02;;;;;;;11.20;9.32;;;;;;;13.03;68.83;94925.47;4208379;28;20098;-61
2023/05/04 08:50:06;;;;;;;13.45;8.77;;;;;;;13.06;68.75;94917.25;4208498;28;20492;-61
2023/05/04 08:52:09;;;;;;;9.25;7.72;;;;;;;12.99;68.41;94919.75;4221687;28;20070;-59
2023/05/04 08:54:10;;;;;;;8.52;7.43;;;;;;;12.93;68.59;94927.44;4229195;28;20053;-61
2023/05/04 08:56:13;;;;;;;10.43;7.22;;;;;;;12.91;68.86;94923.19;4230667;28;20144;-62
2023/05/04 08:58:16;;;;;;;12.85;7.50;;;;;;;13.04;68.09;94919.22;4229620;27;20108;-64
2023/05/04 09:00:18;;;;;;;11.27;8.23;;;;;;;13.03;68.08;94925.47;4226415;28;20078;-62
2023/05/04 09:02:22;;;;;;;13.27;7.68;;;;;;;13.02;68.69;94918.56;4226912;28;20110;-62
2023/05/04 09:04:25;;;;;;;9.35;7.60;;;;;;;12.96;68.13;94925.31;4231328;27;20101;-63
2023/05/04 09:06:30;;;;;;;9.98;7.10;;;;;;;13.04;67.86;94917.41;4227911;27;20052;-61
2023/05/04 09:08:32;;;;;;;8.40;7.25;;;;;;;13.03;67.50;94921.00;4207959;28;20047;-61
2023/05/04 09:10:33;;;;;;;9.02;7.47;;;;;;;13.09;67.31;94924.78;4231325;27;20082;-61
2023/05/04 09:12:36;;;;;;;11.75;8.05;;;;;;;13.13;67.44;94920.84;4231045;28;20674;-62
2023/05/04 09:14:40;;;;;;;8.18;6.97;;;;;;;13.08;67.29;94923.97;4229326;27;20063;-62
2023/05/04 09:16:41;;;;;;;7.57;5.95;;;;;;;13.21;66.73;94925.25;4230015;28;20454;-62
2023/05/04 09:18:43;;;;;;;7.22;6.10;;;;;;;13.28;65.24;94921.78;4230968;27;20086;-59
2023/05/04 09:20:46;;;;;;;11.27;7.00;;;;;;;13.40;65.34;94927.53;4232019;27;20047;-61
2023/05/04 09:22:59;;;;;;;10.30;8.00;;;;;;;13.52;65.22;94926.13;4229277;27;20047;-62
2023/05/04 09:25:11;;;;;;;10.10;7.18;;;;;;;13.56;66.03;94928.44;4223395;27;20472;-61
2023/05/04 09:27:17;;;;;;;9.20;7.45;;;;;;;13.59;65.58;94925.44;4218444;28;20055;-62
2023/05/04 09:29:20;;;;;;;10.88;7.47;;;;;;;13.61;65.52;94921.66;4215672;27;20048;-61